sensor_id;sensor_type;location;lat;lon;timestamp;P1;durP1;ratioP1;P2;durP2;ratioP2
62796;SDS011;48839;48.546;-4.178;2023-04-24T00:00:05;7.35;;;2.90;;
62796;SDS011;48839;48.546;-4.178;2023-04-24T00:02:31;4.82;;;2.95;;
62796;SDS011;48839;48.546;-4.178;2023-04-24T00:04:57;7.65;;;2.90;;
62796;SDS011;48839;48.546;-4.178;2023-04-24T00:07:27;8.60;;;3.40;;
62796;SDS011;48839;48.546;-4.178;2023-04-24T00:09:53;6.13;;;3.10;;
62796;SDS011;48839;48.546;-4.178;2023-04-24T00:12:19;5.75;;;3.63;;
62796;SDS011;48839;48.546;-4.178;2023-04-24T00:14:45;6.07;;;3.40;;
62796;SDS011;48839;48.546;-4.178;2023-04-24T00:17:12;5.82;;;3.60;;
62796;SDS011;48839;48.546;-4.178;2023-04-24T00:19:38;4.50;;;3.88;;
62796;SDS011;48839;48.546;-4.178;2023-04-24T00:22:04;9.15;;;3.47;;
62796;SDS011;48839;48.546;-4.178;2023-04-24T00:24:30;7.18;;;3.28;;
62796;SDS011;48839;48.546;-4.178;2023-04-24T00:26:56;7.65;;;3.58;;
62796;SDS011;48839;48.546;-4.178;2023-04-24T00:29:22;5.72;;;3.28;;
62796;SDS011;48839;48.546;-4.178;2023-04-24T00:31:48;4.53;;;3.03;;
62796;SDS011;48839;48.546;-4.178;2023-04-24T00:34:14;4.55;;;3.45;;
62796;SDS011;48839;48.546;-4.178;2023-04-24T00:36:41;5.57;;;3.58;;
62796;SDS011;48839;48.546;-4.178;2023-04-24T00:39:07;5.97;;;3.28;;
62796;SDS011;48839;48.546;-4.178;2023-04-24T00:41:33;6.82;;;3.30;;
62796;SDS011;48839;48.546;-4.178;2023-04-24T00:43:59;7.15;;;3.55;;
62796;SDS011;48839;48.546;-4.178;2023-04-24T00:46:25;7.25;;;3.33;;
62796;SDS011;48839;48.546;-4.178;2023-04-24T00:48:51;5.20;;;3.65;;
62796;SDS011;48839;48.546;-4.178;2023-04-24T00:51:18;9.27;;;4.20;;
62796;SDS011;48839;48.546;-4.178;2023-04-24T00:53:44;6.32;;;3.88;;
62796;SDS011;48839;48.546;-4.178;2023-04-24T00:56:10;6.10;;;3.75;;
62796;SDS011;48839;48.546;-4.178;2023-04-24T00:58:36;6.90;;;4.18;;
62796;SDS011;48839;48.546;-4.178;2023-04-24T01:01:02;7.30;;;3.55;;
62796;SDS011;48839;48.546;-4.178;2023-04-24T01:03:32;6.38;;;4.20;;
62796;SDS011;48839;48.546;-4.178;2023-04-24T01:05:59;10.75;;;4.28;;
62796;SDS011;48839;48.546;-4.178;2023-04-24T01:08:25;6.40;;;3.65;;
62796;SDS011;48839;48.546;-4.178;2023-04-24T01:10:52;6.43;;;3.53;;
62796;SDS011;48839;48.546;-4.178;2023-04-24T01:13:18;5.75;;;3.60;;
62796;SDS011;48839;48.546;-4.178;2023-04-24T01:15:45;6.00;;;3.90;;
62796;SDS011;48839;48.546;-4.178;2023-04-24T01:18:12;5.20;;;3.78;;
62796;SDS011;48839;48.546;-4.178;2023-04-24T01:20:41;7.55;;;4.15;;
62796;SDS011;48839;48.546;-4.178;2023-04-24T01:23:09;5.32;;;3.65;;
62796;SDS011;48839;48.546;-4.178;2023-04-24T01:25:35;6.93;;;4.47;;
62796;SDS011;48839;48.546;-4.178;2023-04-24T01:28:02;4.95;;;3.45;;
62796;SDS011;48839;48.546;-4.178;2023-04-24T01:30:28;6.50;;;4.00;;
62796;SDS011;48839;48.546;-4.178;2023-04-24T01:32:54;5.28;;;3.50;;
62796;SDS011;48839;48.546;-4.178;2023-04-24T01:35:21;5.65;;;4.03;;
62796;SDS011;48839;48.546;-4.178;2023-04-24T01:37:47;6.72;;;4.25;;
62796;SDS011;48839;48.546;-4.178;2023-04-24T01:40:13;9.77;;;3.83;;
62796;SDS011;48839;48.546;-4.178;2023-04-24T01:42:40;7.80;;;4.57;;
62796;SDS011;48839;48.546;-4.178;2023-04-24T01:45:07;6.90;;;4.40;;
62796;SDS011;48839;48.546;-4.178;2023-04-24T01:47:35;6.22;;;4.50;;
62796;SDS011;48839;48.546;-4.178;2023-04-24T01:50:02;5.47;;;4.57;;
62796;SDS011;48839;48.546;-4.178;2023-04-24T01:52:28;5.60;;;3.90;;
62796;SDS011;48839;48.546;-4.178;2023-04-24T01:54:59;5.72;;;3.60;;
62796;SDS011;48839;48.546;-4.178;2023-04-24T01:57:25;8.20;;;4.35;;
62796;SDS011;48839;48.546;-4.178;2023-04-24T01:59:51;7.15;;;4.55;;
62796;SDS011;48839;48.546;-4.178;2023-04-24T02:02:17;7.65;;;4.43;;
62796;SDS011;48839;48.546;-4.178;2023-04-24T02:04:46;6.28;;;4.35;;
62796;SDS011;48839;48.546;-4.178;2023-04-24T02:07:12;6.30;;;4.10;;
62796;SDS011;48839;48.546;-4.178;2023-04-24T02:09:38;7.78;;;4.00;;
62796;SDS011;48839;48.546;-4.178;2023-04-24T02:12:04;5.95;;;4.32;;
62796;SDS011;48839;48.546;-4.178;2023-04-24T02:14:30;6.75;;;4.45;;
62796;SDS011;48839;48.546;-4.178;2023-04-24T02:16:56;8.45;;;4.05;;
62796;SDS011;48839;48.546;-4.178;2023-04-24T02:19:22;8.30;;;4.18;;
62796;SDS011;48839;48.546;-4.178;2023-04-24T02:21:48;7.10;;;4.57;;
62796;SDS011;48839;48.546;-4.178;2023-04-24T02:24:14;6.45;;;4.55;;
62796;SDS011;48839;48.546;-4.178;2023-04-24T02:26:41;6.95;;;4.60;;
62796;SDS011;48839;48.546;-4.178;2023-04-24T02:29:06;8.57;;;4.88;;
62796;SDS011;48839;48.546;-4.178;2023-04-24T02:31:32;8.63;;;5.07;;
62796;SDS011;48839;48.546;-4.178;2023-04-24T02:33:58;12.15;;;5.15;;
62796;SDS011;48839;48.546;-4.178;2023-04-24T02:36:25;7.30;;;5.22;;
62796;SDS011;48839;48.546;-4.178;2023-04-24T02:38:51;6.80;;;3.97;;
62796;SDS011;48839;48.546;-4.178;2023-04-24T02:41:17;8.60;;;5.10;;
62796;SDS011;48839;48.546;-4.178;2023-04-24T02:43:43;8.52;;;4.80;;
62796;SDS011;48839;48.546;-4.178;2023-04-24T02:46:09;11.05;;;5.35;;
62796;SDS011;48839;48.546;-4.178;2023-04-24T02:48:35;8.85;;;5.22;;
62796;SDS011;48839;48.546;-4.178;2023-04-24T02:51:01;10.75;;;5.72;;
62796;SDS011;48839;48.546;-4.178;2023-04-24T02:53:27;8.30;;;5.45;;
62796;SDS011;48839;48.546;-4.178;2023-04-24T02:55:54;8.52;;;5.85;;
62796;SDS011;48839;48.546;-4.178;2023-04-24T02:58:20;9.75;;;5.57;;
62796;SDS011;48839;48.546;-4.178;2023-04-24T03:00:46;9.05;;;5.55;;
62796;SDS011;48839;48.546;-4.178;2023-04-24T03:03:13;11.02;;;5.95;;
62796;SDS011;48839;48.546;-4.178;2023-04-24T03:05:40;13.23;;;6.60;;
62796;SDS011;48839;48.546;-4.178;2023-04-24T03:08:06;12.27;;;5.72;;
62796;SDS011;48839;48.546;-4.178;2023-04-24T03:10:32;10.40;;;5.57;;
62796;SDS011;48839;48.546;-4.178;2023-04-24T03:12:58;9.90;;;5.85;;
62796;SDS011;48839;48.546;-4.178;2023-04-24T03:15:24;11.70;;;5.20;;
62796;SDS011;48839;48.546;-4.178;2023-04-24T03:17:50;13.82;;;5.53;;
62796;SDS011;48839;48.546;-4.178;2023-04-24T03:20:16;17.27;;;6.82;;
62796;SDS011;48839;48.546;-4.178;2023-04-24T03:22:42;14.48;;;6.07;;
62796;SDS011;48839;48.546;-4.178;2023-04-24T03:25:08;10.07;;;4.93;;
62796;SDS011;48839;48.546;-4.178;2023-04-24T03:27:34;7.70;;;4.75;;
62796;SDS011;48839;48.546;-4.178;2023-04-24T03:30:01;9.65;;;5.05;;
62796;SDS011;48839;48.546;-4.178;2023-04-24T03:32:27;8.68;;;4.78;;
62796;SDS011;48839;48.546;-4.178;2023-04-24T03:34:53;11.93;;;4.55;;
62796;SDS011;48839;48.546;-4.178;2023-04-24T03:37:19;8.98;;;4.78;;
62796;SDS011;48839;48.546;-4.178;2023-04-24T03:39:45;15.82;;;5.43;;
62796;SDS011;48839;48.546;-4.178;2023-04-24T03:42:11;13.18;;;4.80;;
62796;SDS011;48839;48.546;-4.178;2023-04-24T03:44:37;10.45;;;4.28;;
62796;SDS011;48839;48.546;-4.178;2023-04-24T03:47:03;10.85;;;4.38;;
62796;SDS011;48839;48.546;-4.178;2023-04-24T03:49:29;13.35;;;4.90;;
62796;SDS011;48839;48.546;-4.178;2023-04-24T03:51:55;12.68;;;4.45;;
62796;SDS011;48839;48.546;-4.178;2023-04-24T03:54:21;11.82;;;4.28;;
62796;SDS011;48839;48.546;-4.178;2023-04-24T03:56:47;13.27;;;4.25;;
62796;SDS011;48839;48.546;-4.178;2023-04-24T03:59:13;9.90;;;4.82;;
62796;SDS011;48839;48.546;-4.178;2023-04-24T04:01:39;12.00;;;4.43;;
62796;SDS011;48839;48.546;-4.178;2023-04-24T04:04:05;10.48;;;4.13;;
62796;SDS011;48839;48.546;-4.178;2023-04-24T04:06:32;10.82;;;4.78;;
62796;SDS011;48839;48.546;-4.178;2023-04-24T04:08:58;12.77;;;4.35;;
62796;SDS011;48839;48.546;-4.178;2023-04-24T04:11:25;11.00;;;4.60;;
62796;SDS011;48839;48.546;-4.178;2023-04-24T04:13:51;7.20;;;4.10;;
62796;SDS011;48839;48.546;-4.178;2023-04-24T04:16:17;10.45;;;4.10;;
62796;SDS011;48839;48.546;-4.178;2023-04-24T04:18:43;10.95;;;4.50;;
62796;SDS011;48839;48.546;-4.178;2023-04-24T04:21:10;16.73;;;4.35;;
62796;SDS011;48839;48.546;-4.178;2023-04-24T04:23:36;13.05;;;4.28;;
62796;SDS011;48839;48.546;-4.178;2023-04-24T04:26:02;10.35;;;4.18;;
62796;SDS011;48839;48.546;-4.178;2023-04-24T04:28:29;11.60;;;4.22;;
62796;SDS011;48839;48.546;-4.178;2023-04-24T04:30:56;12.80;;;4.80;;
62796;SDS011;48839;48.546;-4.178;2023-04-24T04:33:23;11.25;;;4.45;;
62796;SDS011;48839;48.546;-4.178;2023-04-24T04:35:49;9.65;;;3.90;;
62796;SDS011;48839;48.546;-4.178;2023-04-24T04:38:17;12.00;;;4.10;;
62796;SDS011;48839;48.546;-4.178;2023-04-24T04:40:43;11.30;;;4.43;;
62796;SDS011;48839;48.546;-4.178;2023-04-24T04:43:09;8.05;;;4.05;;
62796;SDS011;48839;48.546;-4.178;2023-04-24T04:45:36;11.43;;;3.78;;
62796;SDS011;48839;48.546;-4.178;2023-04-24T04:48:03;7.97;;;4.00;;
62796;SDS011;48839;48.546;-4.178;2023-04-24T04:50:32;12.65;;;4.38;;
62796;SDS011;48839;48.546;-4.178;2023-04-24T04:52:58;13.32;;;4.68;;
62796;SDS011;48839;48.546;-4.178;2023-04-24T04:55:24;10.13;;;4.55;;
62796;SDS011;48839;48.546;-4.178;2023-04-24T04:57:50;10.57;;;3.97;;
62796;SDS011;48839;48.546;-4.178;2023-04-24T05:00:17;15.70;;;4.68;;
62796;SDS011;48839;48.546;-4.178;2023-04-24T05:02:43;11.57;;;4.07;;
62796;SDS011;48839;48.546;-4.178;2023-04-24T05:05:09;7.97;;;3.72;;
62796;SDS011;48839;48.546;-4.178;2023-04-24T05:07:35;7.80;;;4.00;;
62796;SDS011;48839;48.546;-4.178;2023-04-24T05:10:02;11.88;;;3.90;;
62796;SDS011;48839;48.546;-4.178;2023-04-24T05:12:28;16.92;;;4.40;;
62796;SDS011;48839;48.546;-4.178;2023-04-24T05:14:54;9.40;;;4.53;;
62796;SDS011;48839;48.546;-4.178;2023-04-24T05:17:20;11.00;;;4.22;;
62796;SDS011;48839;48.546;-4.178;2023-04-24T05:19:46;9.27;;;4.45;;
62796;SDS011;48839;48.546;-4.178;2023-04-24T05:22:13;12.15;;;4.03;;
62796;SDS011;48839;48.546;-4.178;2023-04-24T05:24:39;10.63;;;4.95;;
62796;SDS011;48839;48.546;-4.178;2023-04-24T05:27:05;6.18;;;3.65;;
62796;SDS011;48839;48.546;-4.178;2023-04-24T05:29:32;10.05;;;4.10;;
62796;SDS011;48839;48.546;-4.178;2023-04-24T05:31:58;6.10;;;3.25;;
62796;SDS011;48839;48.546;-4.178;2023-04-24T05:34:25;10.98;;;4.20;;
62796;SDS011;48839;48.546;-4.178;2023-04-24T05:36:51;8.07;;;3.67;;
62796;SDS011;48839;48.546;-4.178;2023-04-24T05:39:18;19.52;;;4.10;;
62796;SDS011;48839;48.546;-4.178;2023-04-24T05:41:44;15.15;;;5.15;;
62796;SDS011;48839;48.546;-4.178;2023-04-24T05:44:10;6.10;;;3.88;;
62796;SDS011;48839;48.546;-4.178;2023-04-24T05:46:36;14.55;;;4.57;;
62796;SDS011;48839;48.546;-4.178;2023-04-24T05:49:02;10.93;;;5.32;;
62796;SDS011;48839;48.546;-4.178;2023-04-24T05:51:28;11.45;;;4.35;;
62796;SDS011;48839;48.546;-4.178;2023-04-24T05:53:56;9.45;;;4.38;;
62796;SDS011;48839;48.546;-4.178;2023-04-24T05:56:22;10.30;;;4.38;;
62796;SDS011;48839;48.546;-4.178;2023-04-24T05:58:48;12.60;;;4.28;;
62796;SDS011;48839;48.546;-4.178;2023-04-24T06:01:14;9.68;;;3.38;;
62796;SDS011;48839;48.546;-4.178;2023-04-24T06:03:41;9.55;;;3.67;;
62796;SDS011;48839;48.546;-4.178;2023-04-24T06:06:07;8.45;;;3.97;;
62796;SDS011;48839;48.546;-4.178;2023-04-24T06:08:34;22.23;;;9.18;;
62796;SDS011;48839;48.546;-4.178;2023-04-24T06:11:00;15.77;;;8.55;;
62796;SDS011;48839;48.546;-4.178;2023-04-24T06:13:27;14.50;;;9.55;;
62796;SDS011;48839;48.546;-4.178;2023-04-24T06:15:53;32.03;;;18.70;;
62796;SDS011;48839;48.546;-4.178;2023-04-24T06:18:19;31.13;;;19.55;;
62796;SDS011;48839;48.546;-4.178;2023-04-24T06:20:46;22.42;;;12.32;;
62796;SDS011;48839;48.546;-4.178;2023-04-24T06:23:12;21.67;;;10.88;;
62796;SDS011;48839;48.546;-4.178;2023-04-24T06:25:38;15.60;;;8.60;;
62796;SDS011;48839;48.546;-4.178;2023-04-24T06:28:04;8.13;;;4.95;;
62796;SDS011;48839;48.546;-4.178;2023-04-24T06:30:31;8.70;;;3.38;;
62796;SDS011;48839;48.546;-4.178;2023-04-24T06:32:57;8.25;;;3.20;;
62796;SDS011;48839;48.546;-4.178;2023-04-24T06:35:23;9.63;;;3.63;;
62796;SDS011;48839;48.546;-4.178;2023-04-24T06:37:49;9.95;;;4.38;;
62796;SDS011;48839;48.546;-4.178;2023-04-24T06:40:15;10.50;;;4.60;;
62796;SDS011;48839;48.546;-4.178;2023-04-24T06:42:43;6.55;;;4.70;;
62796;SDS011;48839;48.546;-4.178;2023-04-24T06:45:09;9.23;;;5.10;;
62796;SDS011;48839;48.546;-4.178;2023-04-24T06:47:36;11.20;;;6.53;;
62796;SDS011;48839;48.546;-4.178;2023-04-24T06:50:03;9.52;;;4.85;;
62796;SDS011;48839;48.546;-4.178;2023-04-24T06:52:29;10.55;;;5.55;;
62796;SDS011;48839;48.546;-4.178;2023-04-24T06:55:01;8.52;;;4.82;;
62796;SDS011;48839;48.546;-4.178;2023-04-24T06:57:28;12.35;;;4.80;;
62796;SDS011;48839;48.546;-4.178;2023-04-24T06:59:54;7.20;;;3.90;;
62796;SDS011;48839;48.546;-4.178;2023-04-24T07:02:20;9.80;;;6.93;;
62796;SDS011;48839;48.546;-4.178;2023-04-24T07:04:46;71.13;;;29.38;;
62796;SDS011;48839;48.546;-4.178;2023-04-24T07:07:12;100.63;;;41.88;;
62796;SDS011;48839;48.546;-4.178;2023-04-24T07:09:39;350.48;;;134.40;;
62796;SDS011;48839;48.546;-4.178;2023-04-24T07:12:09;41.58;;;21.58;;
62796;SDS011;48839;48.546;-4.178;2023-04-24T07:14:36;47.80;;;32.05;;
62796;SDS011;48839;48.546;-4.178;2023-04-24T07:17:03;31.27;;;20.35;;
62796;SDS011;48839;48.546;-4.178;2023-04-24T07:19:29;65.88;;;39.60;;
62796;SDS011;48839;48.546;-4.178;2023-04-24T07:21:55;60.20;;;35.45;;
62796;SDS011;48839;48.546;-4.178;2023-04-24T07:24:23;51.55;;;30.25;;
62796;SDS011;48839;48.546;-4.178;2023-04-24T07:26:49;35.50;;;22.55;;
62796;SDS011;48839;48.546;-4.178;2023-04-24T07:29:16;55.38;;;31.48;;
62796;SDS011;48839;48.546;-4.178;2023-04-24T07:31:42;38.40;;;23.50;;
62796;SDS011;48839;48.546;-4.178;2023-04-24T07:34:08;61.90;;;32.72;;
62796;SDS011;48839;48.546;-4.178;2023-04-24T07:36:35;30.50;;;17.38;;
62796;SDS011;48839;48.546;-4.178;2023-04-24T07:39:03;32.78;;;20.65;;
62796;SDS011;48839;48.546;-4.178;2023-04-24T07:41:29;17.60;;;12.20;;
62796;SDS011;48839;48.546;-4.178;2023-04-24T07:43:55;40.78;;;25.90;;
62796;SDS011;48839;48.546;-4.178;2023-04-24T07:46:21;21.88;;;16.10;;
62796;SDS011;48839;48.546;-4.178;2023-04-24T07:48:48;17.60;;;12.88;;
62796;SDS011;48839;48.546;-4.178;2023-04-24T07:51:14;27.08;;;11.27;;
62796;SDS011;48839;48.546;-4.178;2023-04-24T07:53:41;43.83;;;25.33;;
62796;SDS011;48839;48.546;-4.178;2023-04-24T07:56:07;28.63;;;14.25;;
62796;SDS011;48839;48.546;-4.178;2023-04-24T07:58:33;38.53;;;20.70;;
62796;SDS011;48839;48.546;-4.178;2023-04-24T08:00:59;38.55;;;18.38;;
62796;SDS011;48839;48.546;-4.178;2023-04-24T08:03:25;40.55;;;21.95;;
62796;SDS011;48839;48.546;-4.178;2023-04-24T08:05:51;33.10;;;18.17;;
62796;SDS011;48839;48.546;-4.178;2023-04-24T08:08:18;61.03;;;30.52;;
62796;SDS011;48839;48.546;-4.178;2023-04-24T08:10:44;22.52;;;9.52;;
62796;SDS011;48839;48.546;-4.178;2023-04-24T08:13:10;43.10;;;22.10;;
62796;SDS011;48839;48.546;-4.178;2023-04-24T08:15:36;72.20;;;34.17;;
62796;SDS011;48839;48.546;-4.178;2023-04-24T08:18:03;126.32;;;60.70;;
62796;SDS011;48839;48.546;-4.178;2023-04-24T08:20:29;11.63;;;7.40;;
62796;SDS011;48839;48.546;-4.178;2023-04-24T08:22:55;13.05;;;5.45;;
62796;SDS011;48839;48.546;-4.178;2023-04-24T08:25:21;12.13;;;5.57;;
62796;SDS011;48839;48.546;-4.178;2023-04-24T08:27:49;9.35;;;5.30;;
62796;SDS011;48839;48.546;-4.178;2023-04-24T08:30:15;13.30;;;5.32;;
62796;SDS011;48839;48.546;-4.178;2023-04-24T08:32:41;9.25;;;3.85;;
62796;SDS011;48839;48.546;-4.178;2023-04-24T08:35:07;11.75;;;3.20;;
62796;SDS011;48839;48.546;-4.178;2023-04-24T08:37:37;9.25;;;3.47;;
62796;SDS011;48839;48.546;-4.178;2023-04-24T08:40:05;10.82;;;3.58;;
62796;SDS011;48839;48.546;-4.178;2023-04-24T08:42:32;7.78;;;3.55;;
62796;SDS011;48839;48.546;-4.178;2023-04-24T08:44:59;15.45;;;3.42;;
62796;SDS011;48839;48.546;-4.178;2023-04-24T08:47:25;6.70;;;2.95;;
62796;SDS011;48839;48.546;-4.178;2023-04-24T08:49:52;12.45;;;3.22;;
62796;SDS011;48839;48.546;-4.178;2023-04-24T08:52:19;11.48;;;2.67;;
62796;SDS011;48839;48.546;-4.178;2023-04-24T08:54:46;10.00;;;3.05;;
62796;SDS011;48839;48.546;-4.178;2023-04-24T08:57:13;10.95;;;4.18;;
62796;SDS011;48839;48.546;-4.178;2023-04-24T08:59:40;8.05;;;2.28;;
62796;SDS011;48839;48.546;-4.178;2023-04-24T09:02:06;9.65;;;3.38;;
62796;SDS011;48839;48.546;-4.178;2023-04-24T09:04:35;8.48;;;3.00;;
62796;SDS011;48839;48.546;-4.178;2023-04-24T09:07:01;7.63;;;2.92;;
62796;SDS011;48839;48.546;-4.178;2023-04-24T09:09:28;10.82;;;3.20;;
62796;SDS011;48839;48.546;-4.178;2023-04-24T09:11:56;9.63;;;3.17;;
62796;SDS011;48839;48.546;-4.178;2023-04-24T09:14:22;7.80;;;2.50;;
62796;SDS011;48839;48.546;-4.178;2023-04-24T09:16:48;8.13;;;3.22;;
62796;SDS011;48839;48.546;-4.178;2023-04-24T09:19:14;10.40;;;3.30;;
62796;SDS011;48839;48.546;-4.178;2023-04-24T09:21:40;12.82;;;4.53;;
62796;SDS011;48839;48.546;-4.178;2023-04-24T09:24:14;7.13;;;2.90;;
62796;SDS011;48839;48.546;-4.178;2023-04-24T09:26:42;10.25;;;2.55;;
62796;SDS011;48839;48.546;-4.178;2023-04-24T09:29:13;8.10;;;2.22;;
62796;SDS011;48839;48.546;-4.178;2023-04-24T09:31:40;7.80;;;2.90;;
62796;SDS011;48839;48.546;-4.178;2023-04-24T09:34:06;8.20;;;2.70;;
62796;SDS011;48839;48.546;-4.178;2023-04-24T09:36:39;7.15;;;2.10;;
62796;SDS011;48839;48.546;-4.178;2023-04-24T09:39:07;5.15;;;2.25;;
62796;SDS011;48839;48.546;-4.178;2023-04-24T09:41:35;8.02;;;2.15;;
62796;SDS011;48839;48.546;-4.178;2023-04-24T09:44:12;7.20;;;2.58;;
62796;SDS011;48839;48.546;-4.178;2023-04-24T09:46:39;11.00;;;2.22;;
62796;SDS011;48839;48.546;-4.178;2023-04-24T09:49:08;12.27;;;2.60;;
62796;SDS011;48839;48.546;-4.178;2023-04-24T09:51:36;7.22;;;2.00;;
62796;SDS011;48839;48.546;-4.178;2023-04-24T09:54:03;5.57;;;1.80;;
62796;SDS011;48839;48.546;-4.178;2023-04-24T09:56:32;6.57;;;1.98;;
62796;SDS011;48839;48.546;-4.178;2023-04-24T09:59:05;10.68;;;2.50;;
62796;SDS011;48839;48.546;-4.178;2023-04-24T10:01:31;8.10;;;2.25;;
62796;SDS011;48839;48.546;-4.178;2023-04-24T10:03:58;3.85;;;2.03;;
62796;SDS011;48839;48.546;-4.178;2023-04-24T10:06:29;4.82;;;2.30;;
62796;SDS011;48839;48.546;-4.178;2023-04-24T10:08:55;7.50;;;2.17;;
62796;SDS011;48839;48.546;-4.178;2023-04-24T10:11:23;6.43;;;2.30;;
62796;SDS011;48839;48.546;-4.178;2023-04-24T10:13:49;6.25;;;1.65;;
62796;SDS011;48839;48.546;-4.178;2023-04-24T10:16:16;3.83;;;2.10;;
62796;SDS011;48839;48.546;-4.178;2023-04-24T10:18:42;6.93;;;2.33;;
62796;SDS011;48839;48.546;-4.178;2023-04-24T10:21:08;9.40;;;2.17;;
62796;SDS011;48839;48.546;-4.178;2023-04-24T10:23:35;6.88;;;2.53;;
62796;SDS011;48839;48.546;-4.178;2023-04-24T10:26:01;4.78;;;2.00;;
62796;SDS011;48839;48.546;-4.178;2023-04-24T10:28:27;6.47;;;2.38;;
62796;SDS011;48839;48.546;-4.178;2023-04-24T10:30:55;8.07;;;2.35;;
62796;SDS011;48839;48.546;-4.178;2023-04-24T10:33:22;8.98;;;2.80;;
62796;SDS011;48839;48.546;-4.178;2023-04-24T10:35:48;6.10;;;2.13;;
62796;SDS011;48839;48.546;-4.178;2023-04-24T10:38:16;7.57;;;2.00;;
62796;SDS011;48839;48.546;-4.178;2023-04-24T10:40:44;5.55;;;1.73;;
62796;SDS011;48839;48.546;-4.178;2023-04-24T10:43:10;8.45;;;2.45;;
62796;SDS011;48839;48.546;-4.178;2023-04-24T10:45:36;10.30;;;3.15;;
62796;SDS011;48839;48.546;-4.178;2023-04-24T10:48:04;3.35;;;1.98;;
62796;SDS011;48839;48.546;-4.178;2023-04-24T10:50:47;8.02;;;2.35;;
62796;SDS011;48839;48.546;-4.178;2023-04-24T10:53:23;3.10;;;1.58;;
62796;SDS011;48839;48.546;-4.178;2023-04-24T10:55:58;7.32;;;1.65;;
62796;SDS011;48839;48.546;-4.178;2023-04-24T10:58:35;5.68;;;1.85;;
62796;SDS011;48839;48.546;-4.178;2023-04-24T11:01:02;6.65;;;2.00;;
62796;SDS011;48839;48.546;-4.178;2023-04-24T11:03:29;9.10;;;2.30;;
62796;SDS011;48839;48.546;-4.178;2023-04-24T11:05:59;5.22;;;1.80;;
62796;SDS011;48839;48.546;-4.178;2023-04-24T11:08:38;5.22;;;2.15;;
62796;SDS011;48839;48.546;-4.178;2023-04-24T11:11:08;5.47;;;2.40;;
62796;SDS011;48839;48.546;-4.178;2023-04-24T11:16:20;4.95;;;1.88;;
62796;SDS011;48839;48.546;-4.178;2023-04-24T11:18:50;5.22;;;2.08;;
62796;SDS011;48839;48.546;-4.178;2023-04-24T11:21:18;5.10;;;2.45;;
62796;SDS011;48839;48.546;-4.178;2023-04-24T11:23:44;8.75;;;2.17;;
62796;SDS011;48839;48.546;-4.178;2023-04-24T11:26:44;7.55;;;1.70;;
62796;SDS011;48839;48.546;-4.178;2023-04-24T11:29:06;5.03;;;1.75;;
62796;SDS011;48839;48.546;-4.178;2023-04-24T11:31:37;5.78;;;2.20;;
62796;SDS011;48839;48.546;-4.178;2023-04-24T11:34:10;6.03;;;2.33;;
62796;SDS011;48839;48.546;-4.178;2023-04-24T11:36:37;6.05;;;2.08;;
62796;SDS011;48839;48.546;-4.178;2023-04-24T11:39:03;6.82;;;2.03;;
62796;SDS011;48839;48.546;-4.178;2023-04-24T11:41:29;5.68;;;1.85;;
62796;SDS011;48839;48.546;-4.178;2023-04-24T11:43:55;5.10;;;1.60;;
62796;SDS011;48839;48.546;-4.178;2023-04-24T11:46:22;5.38;;;1.92;;
62796;SDS011;48839;48.546;-4.178;2023-04-24T11:48:48;13.63;;;2.95;;
62796;SDS011;48839;48.546;-4.178;2023-04-24T11:51:14;5.93;;;2.05;;
62796;SDS011;48839;48.546;-4.178;2023-04-24T11:53:40;6.15;;;1.80;;
62796;SDS011;48839;48.546;-4.178;2023-04-24T11:56:08;6.38;;;2.25;;
62796;SDS011;48839;48.546;-4.178;2023-04-24T11:58:38;6.68;;;2.35;;
62796;SDS011;48839;48.546;-4.178;2023-04-24T12:01:04;5.05;;;2.30;;
62796;SDS011;48839;48.546;-4.178;2023-04-24T12:03:30;3.42;;;1.60;;
62796;SDS011;48839;48.546;-4.178;2023-04-24T12:06:06;3.10;;;2.10;;
62796;SDS011;48839;48.546;-4.178;2023-04-24T12:08:35;8.55;;;2.58;;
62796;SDS011;48839;48.546;-4.178;2023-04-24T12:11:05;5.32;;;2.60;;
62796;SDS011;48839;48.546;-4.178;2023-04-24T12:13:35;5.65;;;3.33;;
62796;SDS011;48839;48.546;-4.178;2023-04-24T12:16:02;320.48;;;150.57;;
62796;SDS011;48839;48.546;-4.178;2023-04-24T12:18:30;337.10;;;187.57;;
62796;SDS011;48839;48.546;-4.178;2023-04-24T12:21:14;168.20;;;121.20;;
62796;SDS011;48839;48.546;-4.178;2023-04-24T12:23:42;215.55;;;119.30;;
62796;SDS011;48839;48.546;-4.178;2023-04-24T12:26:08;245.40;;;145.07;;
62796;SDS011;48839;48.546;-4.178;2023-04-24T12:28:38;218.30;;;102.60;;
62796;SDS011;48839;48.546;-4.178;2023-04-24T12:31:04;222.70;;;104.45;;
62796;SDS011;48839;48.546;-4.178;2023-04-24T12:33:34;21.88;;;9.63;;
62796;SDS011;48839;48.546;-4.178;2023-04-24T12:36:01;8.98;;;3.70;;
62796;SDS011;48839;48.546;-4.178;2023-04-24T12:38:27;11.48;;;3.83;;
62796;SDS011;48839;48.546;-4.178;2023-04-24T12:41:08;86.45;;;40.92;;
62796;SDS011;48839;48.546;-4.178;2023-04-24T12:43:35;21.75;;;10.65;;
62796;SDS011;48839;48.546;-4.178;2023-04-24T12:46:01;36.60;;;19.35;;
62796;SDS011;48839;48.546;-4.178;2023-04-24T12:48:28;43.08;;;22.23;;
62796;SDS011;48839;48.546;-4.178;2023-04-24T12:50:54;34.13;;;17.65;;
62796;SDS011;48839;48.546;-4.178;2023-04-24T12:53:21;326.88;;;136.48;;
62796;SDS011;48839;48.546;-4.178;2023-04-24T12:55:47;51.92;;;29.20;;
62796;SDS011;48839;48.546;-4.178;2023-04-24T12:58:20;19.90;;;8.35;;
62796;SDS011;48839;48.546;-4.178;2023-04-24T13:00:47;25.58;;;12.75;;
62796;SDS011;48839;48.546;-4.178;2023-04-24T13:03:13;19.30;;;10.10;;
62796;SDS011;48839;48.546;-4.178;2023-04-24T13:05:40;13.90;;;6.50;;
62796;SDS011;48839;48.546;-4.178;2023-04-24T13:08:06;17.17;;;7.10;;
62796;SDS011;48839;48.546;-4.178;2023-04-24T13:10:32;8.45;;;2.97;;
62796;SDS011;48839;48.546;-4.178;2023-04-24T13:12:59;8.68;;;3.13;;
62796;SDS011;48839;48.546;-4.178;2023-04-24T13:15:25;8.35;;;3.30;;
62796;SDS011;48839;48.546;-4.178;2023-04-24T13:17:51;4.53;;;2.20;;
62796;SDS011;48839;48.546;-4.178;2023-04-24T13:20:17;6.90;;;2.20;;
62796;SDS011;48839;48.546;-4.178;2023-04-24T13:22:43;6.25;;;1.70;;
62796;SDS011;48839;48.546;-4.178;2023-04-24T13:25:09;16.25;;;6.65;;
62796;SDS011;48839;48.546;-4.178;2023-04-24T13:27:37;14.30;;;5.82;;
62796;SDS011;48839;48.546;-4.178;2023-04-24T13:30:03;19.65;;;7.57;;
62796;SDS011;48839;48.546;-4.178;2023-04-24T13:32:29;258.73;;;122.28;;
62796;SDS011;48839;48.546;-4.178;2023-04-24T13:34:56;326.75;;;169.32;;
62796;SDS011;48839;48.546;-4.178;2023-04-24T13:37:22;35.58;;;16.98;;
62796;SDS011;48839;48.546;-4.178;2023-04-24T13:39:48;48.17;;;23.80;;
62796;SDS011;48839;48.546;-4.178;2023-04-24T13:42:14;7.78;;;3.30;;
62796;SDS011;48839;48.546;-4.178;2023-04-24T13:44:41;30.75;;;11.15;;
62796;SDS011;48839;48.546;-4.178;2023-04-24T13:47:08;53.67;;;22.20;;
62796;SDS011;48839;48.546;-4.178;2023-04-24T13:49:34;31.55;;;15.27;;
62796;SDS011;48839;48.546;-4.178;2023-04-24T13:52:00;22.65;;;12.13;;
62796;SDS011;48839;48.546;-4.178;2023-04-24T13:54:26;17.50;;;7.45;;
62796;SDS011;48839;48.546;-4.178;2023-04-24T13:56:52;3.90;;;1.95;;
62796;SDS011;48839;48.546;-4.178;2023-04-24T13:59:19;8.52;;;2.47;;
62796;SDS011;48839;48.546;-4.178;2023-04-24T14:01:46;7.55;;;2.35;;
62796;SDS011;48839;48.546;-4.178;2023-04-24T14:04:12;10.43;;;3.63;;
62796;SDS011;48839;48.546;-4.178;2023-04-24T14:06:38;6.72;;;2.40;;
62796;SDS011;48839;48.546;-4.178;2023-04-24T14:09:05;14.32;;;6.93;;
62796;SDS011;48839;48.546;-4.178;2023-04-24T14:11:31;6.72;;;3.50;;
62796;SDS011;48839;48.546;-4.178;2023-04-24T14:13:57;3.50;;;1.70;;
62796;SDS011;48839;48.546;-4.178;2023-04-24T14:16:23;9.25;;;1.90;;
62796;SDS011;48839;48.546;-4.178;2023-04-24T14:18:49;5.30;;;2.33;;
62796;SDS011;48839;48.546;-4.178;2023-04-24T14:21:15;6.05;;;2.00;;
62796;SDS011;48839;48.546;-4.178;2023-04-24T14:23:41;3.88;;;1.20;;
62796;SDS011;48839;48.546;-4.178;2023-04-24T14:26:07;8.07;;;1.40;;